createdAt,value
2022-12-24T00:02:26.981Z,3.69
2022-12-24T00:05:00.440Z,3.64
2022-12-24T00:07:27.343Z,3.61
2022-12-24T00:09:53.639Z,3.60
2022-12-24T00:12:19.927Z,3.65
2022-12-24T00:14:46.243Z,3.55
2022-12-24T00:17:12.629Z,3.58
2022-12-24T00:19:38.957Z,3.51
2022-12-24T00:22:05.257Z,3.52
2022-12-24T00:24:31.563Z,3.47
2022-12-24T00:26:57.931Z,3.45
2022-12-24T00:29:24.288Z,3.40
2022-12-24T00:31:50.744Z,3.49
2022-12-24T00:34:17.074Z,3.51
2022-12-24T00:36:43.403Z,3.51
2022-12-24T00:39:09.779Z,3.45
2022-12-24T00:41:36.077Z,3.51
2022-12-24T00:44:05.822Z,3.47
2022-12-24T00:46:34.032Z,3.56
2022-12-24T00:49:01.112Z,3.50
2022-12-24T00:51:28.260Z,3.52
2022-12-24T00:53:54.921Z,3.54
2022-12-24T00:56:21.635Z,3.57
2022-12-24T00:58:48.357Z,3.57
2022-12-24T01:01:15.666Z,3.55
2022-12-24T01:03:42.256Z,3.50
2022-12-24T01:06:15.161Z,3.44
2022-12-24T01:08:41.937Z,3.46
2022-12-24T01:11:10.219Z,3.53
2022-12-24T01:13:37.006Z,3.42
2022-12-24T01:16:04.450Z,3.43
2022-12-24T01:18:30.789Z,3.46
2022-12-24T01:20:58.372Z,3.47
2022-12-24T01:23:25.469Z,3.43
2022-12-24T01:25:52.577Z,3.42
2022-12-24T01:28:20.624Z,3.49
2022-12-24T01:30:47.950Z,3.41
2022-12-24T01:33:14.909Z,3.36
2022-12-24T01:35:42.763Z,3.36
2022-12-24T01:38:11.690Z,3.36
2022-12-24T01:41:00.953Z,3.32
2022-12-24T01:43:31.639Z,3.33
2022-12-24T01:46:12.239Z,3.26
2022-12-24T01:48:54.354Z,3.36
2022-12-24T01:51:30.343Z,3.35
2022-12-24T01:54:09.439Z,3.26
2022-12-24T01:56:40.516Z,3.19
2022-12-24T01:59:09.824Z,3.22
2022-12-24T02:01:37.045Z,3.24
2022-12-24T02:04:13.409Z,3.16
2022-12-24T02:06:39.845Z,3.22
2022-12-24T02:09:07.158Z,3.16
2022-12-24T02:11:38.056Z,3.12
2022-12-24T02:14:04.567Z,3.14
2022-12-24T02:16:40.133Z,3.17
2022-12-24T02:19:44.848Z,3.18
2022-12-24T02:22:48.010Z,3.17
2022-12-24T02:25:29.399Z,3.09
2022-12-24T02:28:14.422Z,3.07
2022-12-24T02:30:51.124Z,3.01
2022-12-24T02:33:38.660Z,3.00
2022-12-24T02:36:15.239Z,3.06
2022-12-24T02:38:44.848Z,3.04
2022-12-24T02:41:25.252Z,3.05
2022-12-24T02:43:55.228Z,3.08
2022-12-24T02:46:27.801Z,3.07
2022-12-24T02:48:55.129Z,3.11
2022-12-24T02:51:25.396Z,3.08
2022-12-24T02:53:52.063Z,3.05
2022-12-24T02:56:44.635Z,3.11
2022-12-24T02:59:29.064Z,3.07
2022-12-24T03:02:14.322Z,3.10
2022-12-24T03:05:08.785Z,3.11
2022-12-24T03:07:55.254Z,3.18
2022-12-24T03:10:31.586Z,3.21
2022-12-24T03:13:13.655Z,3.20
2022-12-24T03:15:41.094Z,3.23
2022-12-24T03:18:11.298Z,3.25
2022-12-24T03:20:44.451Z,3.26
2022-12-24T03:23:12.674Z,3.25
2022-12-24T03:25:44.156Z,3.30
2022-12-24T03:28:17.271Z,3.27
2022-12-24T03:30:45.842Z,3.32
2022-12-24T03:33:13.097Z,3.27
2022-12-24T03:35:39.529Z,3.30
2022-12-24T03:38:06.065Z,3.32
2022-12-24T03:40:32.608Z,3.30
2022-12-24T03:42:59.174Z,3.38
2022-12-24T03:45:25.564Z,3.46
2022-12-24T03:47:52.020Z,3.46
2022-12-24T03:50:18.368Z,3.42
2022-12-24T03:52:44.824Z,3.49
2022-12-24T03:55:11.396Z,3.51
2022-12-24T03:57:37.753Z,3.47
2022-12-24T04:00:06.382Z,3.41
2022-12-24T04:02:33.636Z,3.39
2022-12-24T04:05:00.007Z,3.37
2022-12-24T04:07:27.074Z,3.40
2022-12-24T04:09:53.396Z,3.37
2022-12-24T04:12:19.775Z,3.35
2022-12-24T04:14:46.229Z,3.37
2022-12-24T04:17:12.610Z,3.34
2022-12-24T04:19:39.306Z,3.40
2022-12-24T04:22:05.671Z,3.40
2022-12-24T04:24:32.067Z,3.42
2022-12-24T04:26:59.633Z,3.46
2022-12-24T04:29:25.978Z,3.43
2022-12-24T04:31:52.329Z,3.42
2022-12-24T04:34:18.768Z,3.45
2022-12-24T04:36:45.189Z,3.45
2022-12-24T04:39:12.303Z,3.56
2022-12-24T04:41:38.753Z,3.56
2022-12-24T04:44:05.189Z,3.53
2022-12-24T04:46:31.605Z,3.52
2022-12-24T04:48:58.623Z,3.50
2022-12-24T04:51:27.973Z,3.51
2022-12-24T04:53:54.845Z,3.53
2022-12-24T04:56:30.256Z,3.54
2022-12-24T04:58:58.246Z,3.48
2022-12-24T05:01:26.952Z,3.51
2022-12-24T05:03:54.686Z,3.54
2022-12-24T05:06:23.878Z,3.50
2022-12-24T05:08:50.528Z,3.52
2022-12-24T05:11:17.424Z,3.50
2022-12-24T05:13:47.631Z,3.49
2022-12-24T05:16:19.606Z,3.44
2022-12-24T05:18:46.327Z,3.47
2022-12-24T05:21:21.880Z,3.45
2022-12-24T05:24:07.488Z,3.47
2022-12-24T05:26:44.838Z,3.45
2022-12-24T05:29:14.530Z,3.46
2022-12-24T05:31:42.072Z,3.49
2022-12-24T05:34:09.047Z,3.52
2022-12-24T05:36:35.600Z,3.44
2022-12-24T05:39:02.392Z,3.52
2022-12-24T05:41:28.992Z,3.52
2022-12-24T05:43:55.462Z,3.45
2022-12-24T05:46:23.886Z,3.45
2022-12-24T05:48:52.140Z,3.43
2022-12-24T05:51:20.323Z,3.31
2022-12-24T05:53:47.593Z,3.29
2022-12-24T05:56:17.156Z,3.32
2022-12-24T05:58:44.247Z,3.38
2022-12-24T06:01:11.775Z,3.35
2022-12-24T06:03:38.864Z,3.34
2022-12-24T06:06:08.039Z,3.34
2022-12-24T06:08:36.072Z,3.35
2022-12-24T06:11:05.412Z,3.36
2022-12-24T06:13:32.461Z,3.36
2022-12-24T06:16:01.475Z,3.31
2022-12-24T06:18:29.649Z,3.29
2022-12-24T06:20:57.882Z,3.25
2022-12-24T06:23:25.242Z,3.23
2022-12-24T06:25:52.597Z,3.24
2022-12-24T06:28:18.903Z,3.24
2022-12-24T06:30:50.295Z,3.20
2022-12-24T06:33:17.513Z,3.14
2022-12-24T06:35:47.933Z,3.17
2022-12-24T06:38:15.690Z,3.17
2022-12-24T06:40:44.153Z,3.14
2022-12-24T06:43:11.113Z,3.10
2022-12-24T06:45:37.561Z,3.09
2022-12-24T06:48:04.204Z,3.14
2022-12-24T06:50:30.634Z,3.12
2022-12-24T06:52:56.937Z,3.18
2022-12-24T06:55:23.306Z,3.19
2022-12-24T06:57:49.599Z,3.12
2022-12-24T07:00:16.318Z,3.10
2022-12-24T07:02:43.639Z,3.05
2022-12-24T07:05:12.446Z,3.00
2022-12-24T07:07:40.787Z,3.02
2022-12-24T07:10:08.592Z,3.10
2022-12-24T07:12:35.344Z,3.04
2022-12-24T07:15:01.727Z,3.01
2022-12-24T07:17:28.199Z,3.04
2022-12-24T07:19:55.061Z,3.00
2022-12-24T07:22:21.659Z,3.02
2022-12-24T07:24:48.279Z,3.10
2022-12-24T07:27:14.725Z,3.08
2022-12-24T07:29:41.308Z,3.01
2022-12-24T07:32:07.635Z,3.05
2022-12-24T07:34:35.801Z,3.04
2022-12-24T07:37:03.889Z,3.00
2022-12-24T07:39:30.156Z,3.04
2022-12-24T07:41:56.536Z,2.98
2022-12-24T07:44:22.969Z,3.04
2022-12-24T07:46:49.376Z,3.04
2022-12-24T07:49:15.858Z,3.04
2022-12-24T07:51:42.161Z,3.05
2022-12-24T07:54:08.707Z,3.10
2022-12-24T07:56:35.148Z,3.08
2022-12-24T07:59:01.430Z,3.08
2022-12-24T08:01:27.861Z,3.05
2022-12-24T08:03:54.506Z,3.07
2022-12-24T08:06:22.120Z,3.10
2022-12-24T08:08:49.011Z,3.08
2022-12-24T08:11:16.070Z,3.07
2022-12-24T08:13:42.399Z,3.13
2022-12-24T08:16:08.799Z,3.14
2022-12-24T08:18:35.225Z,3.18
2022-12-24T08:21:01.658Z,3.17
2022-12-24T08:23:27.959Z,3.14
2022-12-24T08:25:55.750Z,3.10
2022-12-24T08:28:22.116Z,3.19
2022-12-24T08:30:50.017Z,3.21
2022-12-24T08:33:17.329Z,3.26
2022-12-24T08:35:51.973Z,3.23
2022-12-24T08:38:19.076Z,3.27
2022-12-24T08:40:48.716Z,3.23
2022-12-24T08:43:16.852Z,3.23
2022-12-24T08:45:43.374Z,3.14
2022-12-24T08:48:10.823Z,3.19
2022-12-24T08:50:41.530Z,3.24
2022-12-24T08:53:08.882Z,3.22
2022-12-24T08:55:35.336Z,3.25
2022-12-24T08:58:01.813Z,3.19
2022-12-24T09:00:28.176Z,3.26
2022-12-24T09:02:55.822Z,3.29
2022-12-24T09:05:22.246Z,3.25
2022-12-24T09:07:48.625Z,3.25
2022-12-24T09:10:14.905Z,3.34
2022-12-24T09:12:41.204Z,3.37
2022-12-24T09:15:08.275Z,3.28
2022-12-24T09:17:35.757Z,3.36
2022-12-24T09:20:03.113Z,3.41
2022-12-24T09:22:29.430Z,3.31
2022-12-24T09:24:55.955Z,3.31
2022-12-24T09:27:22.606Z,3.41
2022-12-24T09:29:48.945Z,3.45
2022-12-24T09:32:15.262Z,3.39
2022-12-24T09:34:41.586Z,3.33
2022-12-24T09:37:08.077Z,3.38
2022-12-24T09:39:34.365Z,3.46
2022-12-24T09:42:09.479Z,3.51
2022-12-24T09:45:02.906Z,3.49
2022-12-24T09:47:33.302Z,3.49
2022-12-24T09:50:03.313Z,3.46
2022-12-24T09:52:35.090Z,3.45
2022-12-24T09:55:17.542Z,3.48
2022-12-24T09:57:47.069Z,3.52
2022-12-24T10:00:22.145Z,3.58
2022-12-24T10:02:48.657Z,3.51
2022-12-24T10:05:16.360Z,3.49
2022-12-24T10:07:52.041Z,3.52
2022-12-24T10:10:42.555Z,3.55
2022-12-24T10:13:32.259Z,3.59
2022-12-24T10:16:09.250Z,3.65
2022-12-24T10:18:55.454Z,3.67
2022-12-24T10:21:53.966Z,3.58
2022-12-24T10:24:35.873Z,3.68
2022-12-24T10:27:14.720Z,3.70
2022-12-24T10:29:46.173Z,3.62
2022-12-24T10:32:22.712Z,3.65
2022-12-24T10:34:59.805Z,3.69
2022-12-24T10:37:28.977Z,3.77
2022-12-24T10:39:58.007Z,3.82
2022-12-24T10:42:38.230Z,3.86
2022-12-24T10:45:07.731Z,3.93
2022-12-24T10:47:39.001Z,3.95
2022-12-24T10:50:15.429Z,3.88
2022-12-24T10:52:45.189Z,3.79
2022-12-24T10:55:24.085Z,3.91
2022-12-24T10:58:02.629Z,3.96
2022-12-24T11:00:35.615Z,3.84
2022-12-24T11:03:13.967Z,3.84
2022-12-24T11:05:40.867Z,3.86
2022-12-24T11:08:17.339Z,3.81
2022-12-24T11:11:00.783Z,3.88
2022-12-24T11:13:39.315Z,3.86
2022-12-24T11:16:21.435Z,3.89
2022-12-24T11:18:53.340Z,3.86
2022-12-24T11:21:22.857Z,3.83
2022-12-24T11:23:52.796Z,3.83
2022-12-24T11:26:25.214Z,3.84
2022-12-24T11:29:25.559Z,3.83
2022-12-24T11:31:53.853Z,3.87
2022-12-24T11:34:33.300Z,3.89
2022-12-24T11:37:20.642Z,3.97
2022-12-24T11:39:53.597Z,4.03
2022-12-24T11:42:28.401Z,4.02
2022-12-24T11:44:56.822Z,3.92
2022-12-24T11:47:37.192Z,3.88
2022-12-24T11:50:22.557Z,4.05
2022-12-24T11:52:56.824Z,4.09
2022-12-24T11:55:44.370Z,4.26
2022-12-24T11:58:22.552Z,4.27
2022-12-24T12:00:51.047Z,4.07
2022-12-24T12:03:35.680Z,4.10
2022-12-24T12:06:07.305Z,4.15
2022-12-24T12:08:37.473Z,4.23
2022-12-24T12:11:12.419Z,4.17
2022-12-24T12:13:43.355Z,4.05
2022-12-24T12:16:30.468Z,4.09
2022-12-24T12:19:03.247Z,4.15
2022-12-24T12:21:39.902Z,4.24
2022-12-24T12:24:44.052Z,4.27
2022-12-24T12:27:29.259Z,4.34
2022-12-24T12:30:01.516Z,4.33
2022-12-24T12:32:42.335Z,4.34
2022-12-24T12:35:18.644Z,4.52
2022-12-24T12:37:52.595Z,4.46
2022-12-24T12:40:19.146Z,4.30
2022-12-24T12:42:57.083Z,4.33
2022-12-24T12:45:40.353Z,4.30
2022-12-24T12:48:25.613Z,4.41
2022-12-24T12:51:07.248Z,4.56
2022-12-24T12:53:53.754Z,4.63
2022-12-24T12:56:30.866Z,4.56
2022-12-24T12:59:08.216Z,4.65
2022-12-24T13:01:50.944Z,4.65
2022-12-24T13:04:42.583Z,4.73
2022-12-24T13:07:16.921Z,4.67
2022-12-24T13:10:12.107Z,4.75
2022-12-24T13:13:09.379Z,4.84
2022-12-24T13:15:50.881Z,4.90
2022-12-24T13:18:40.746Z,4.92
2022-12-24T13:21:17.190Z,4.83
2022-12-24T13:23:44.215Z,4.85
2022-12-24T13:26:13.334Z,4.95
2022-12-24T13:28:40.483Z,5.00
2022-12-24T13:31:19.772Z,4.93
2022-12-24T13:33:48.749Z,5.06
2022-12-24T13:36:18.173Z,5.17
2022-12-24T13:38:53.016Z,5.22
2022-12-24T13:41:41.879Z,5.19
2022-12-24T13:44:12.729Z,5.12
2022-12-24T13:47:00.700Z,5.29
2022-12-24T13:49:37.394Z,5.15
2022-12-24T13:52:15.889Z,5.15
2022-12-24T13:54:50.157Z,5.04
2022-12-24T13:57:29.355Z,5.10
2022-12-24T14:00:20.314Z,5.18
2022-12-24T14:02:52.224Z,5.24
2022-12-24T14:05:44.755Z,5.30
2022-12-24T14:08:29.483Z,5.19
2022-12-24T14:11:25.327Z,5.11
2022-12-24T14:14:08.227Z,5.09
2022-12-24T14:16:48.547Z,5.10
2022-12-24T14:19:20.386Z,5.17
2022-12-24T14:21:53.019Z,5.07
2022-12-24T14:24:26.249Z,5.06
2022-12-24T14:27:06.126Z,5.10
2022-12-24T14:29:37.475Z,5.12
2022-12-24T14:32:13.958Z,5.18
2022-12-24T14:34:40.341Z,5.20
2022-12-24T14:37:07.168Z,5.25
2022-12-24T14:39:39.341Z,5.22
2022-12-24T14:42:38.567Z,5.23
2022-12-24T14:45:26.166Z,5.24
2022-12-24T14:48:03.915Z,5.21
2022-12-24T14:50:49.099Z,5.20
2022-12-24T14:53:42.751Z,5.16
2022-12-24T14:56:14.401Z,5.08
2022-12-24T14:58:40.864Z,5.01
2022-12-24T15:01:27.276Z,5.06
2022-12-24T15:04:09.224Z,5.11
2022-12-24T15:07:05.034Z,5.12
2022-12-24T15:09:34.300Z,5.12
2022-12-24T15:12:04.319Z,5.12
2022-12-24T15:14:43.794Z,5.21
2022-12-24T15:17:12.721Z,5.23
2022-12-24T15:19:43.402Z,5.21
2022-12-24T15:22:17.804Z,5.27
2022-12-24T15:24:46.500Z,5.32
2022-12-24T15:27:21.712Z,5.36
2022-12-24T15:29:50.510Z,5.44
2022-12-24T15:32:19.245Z,5.53
2022-12-24T15:34:51.790Z,5.53
2022-12-24T15:37:29.939Z,5.57
2022-12-24T15:40:21.111Z,5.62
2022-12-24T15:42:47.702Z,5.61
2022-12-24T15:45:29.622Z,5.65
2022-12-24T15:48:08.809Z,5.69
2022-12-24T15:50:46.684Z,5.75
2022-12-24T15:53:20.814Z,5.73
2022-12-24T15:56:04.452Z,5.82
2022-12-24T15:58:34.266Z,5.86
2022-12-24T16:01:03.921Z,5.90
2022-12-24T16:03:30.791Z,5.91
2022-12-24T16:06:01.467Z,5.93
2022-12-24T16:08:35.977Z,5.90
2022-12-24T16:11:05.246Z,5.94
2022-12-24T16:13:34.803Z,5.99
2022-12-24T16:16:05.300Z,5.98
2022-12-24T16:18:48.858Z,5.83
2022-12-24T16:21:36.505Z,5.82
2022-12-24T16:24:14.923Z,5.82
2022-12-24T16:26:41.380Z,5.90
2022-12-24T16:29:08.128Z,6.01
2022-12-24T16:31:37.858Z,6.04
2022-12-24T16:34:05.426Z,5.99
2022-12-24T16:36:32.288Z,6.04
2022-12-24T16:39:17.681Z,6.05
2022-12-24T16:42:02.431Z,6.02
2022-12-24T16:44:29.234Z,6.09
2022-12-24T16:46:56.228Z,6.18
2022-12-24T16:49:23.367Z,6.24
2022-12-24T16:51:49.735Z,6.28
2022-12-24T16:54:16.091Z,6.30
2022-12-24T16:56:44.011Z,6.35
2022-12-24T16:59:20.317Z,6.39
2022-12-24T17:01:47.865Z,6.46
2022-12-24T17:04:15.643Z,6.48
2022-12-24T17:06:41.976Z,6.52
2022-12-24T17:09:09.791Z,6.59
2022-12-24T17:11:36.946Z,6.58
2022-12-24T17:14:08.106Z,6.58
2022-12-24T17:16:36.932Z,6.55
2022-12-24T17:19:04.112Z,6.62
2022-12-24T17:21:30.502Z,6.60
2022-12-24T17:23:57.891Z,6.68
2022-12-24T17:26:24.419Z,6.76
2022-12-24T17:28:56.432Z,6.80
2022-12-24T17:31:23.905Z,6.86
2022-12-24T17:33:52.758Z,6.85
2022-12-24T17:36:20.053Z,6.85
2022-12-24T17:38:46.852Z,6.83
2022-12-24T17:41:16.244Z,6.85
2022-12-24T17:43:42.803Z,6.82
2022-12-24T17:46:17.728Z,6.88
2022-12-24T17:48:44.890Z,6.95
2022-12-24T17:51:13.948Z,7.02
2022-12-24T17:53:42.051Z,6.96
2022-12-24T17:56:12.165Z,6.94
2022-12-24T17:58:40.356Z,6.98
2022-12-24T18:01:11.684Z,6.95
2022-12-24T18:03:38.176Z,6.98
2022-12-24T18:06:06.690Z,7.00
2022-12-24T18:08:34.032Z,6.94
2022-12-24T18:11:09.668Z,7.02
2022-12-24T18:13:36.020Z,7.09
2022-12-24T18:16:02.303Z,7.12
2022-12-24T18:18:28.622Z,7.13
2022-12-24T18:20:54.943Z,7.18
2022-12-24T18:23:21.234Z,7.12
2022-12-24T18:25:47.691Z,7.13
2022-12-24T18:28:14.078Z,7.14
2022-12-24T18:30:40.516Z,7.17
2022-12-24T18:33:06.940Z,7.11
2022-12-24T18:35:33.279Z,7.11
2022-12-24T18:37:59.559Z,7.10
2022-12-24T18:40:25.852Z,7.13
2022-12-24T18:42:52.117Z,7.12
2022-12-24T18:45:18.463Z,7.10
2022-12-24T18:47:44.793Z,7.07
2022-12-24T18:50:11.307Z,7.08
2022-12-24T18:52:37.645Z,7.04
2022-12-24T18:55:04.123Z,7.12
2022-12-24T18:57:30.720Z,7.08
2022-12-24T18:59:57.023Z,7.06
2022-12-24T19:02:23.612Z,7.05
2022-12-24T19:04:52.440Z,7.08
2022-12-24T19:07:18.911Z,7.12
2022-12-24T19:09:48.610Z,7.08
2022-12-24T19:12:15.853Z,7.06
2022-12-24T19:14:42.702Z,7.06
2022-12-24T19:17:09.629Z,7.06
2022-12-24T19:19:36.000Z,7.03
2022-12-24T19:22:03.397Z,7.06
2022-12-24T19:24:29.919Z,7.01
2022-12-24T19:26:56.259Z,7.02
2022-12-24T19:29:25.010Z,7.05
2022-12-24T19:31:51.525Z,6.96
2022-12-24T19:34:18.036Z,6.99
2022-12-24T19:36:44.555Z,7.00
2022-12-24T19:39:10.940Z,6.96
2022-12-24T19:41:37.275Z,6.96
2022-12-24T19:44:03.854Z,6.97
2022-12-24T19:46:32.989Z,6.93
2022-12-24T19:49:05.137Z,6.90
2022-12-24T19:51:32.394Z,6.85
2022-12-24T19:54:00.235Z,6.87
2022-12-24T19:56:31.018Z,6.81
2022-12-24T19:58:58.283Z,6.82
2022-12-24T20:01:27.268Z,6.73
2022-12-24T20:03:54.242Z,6.75
2022-12-24T20:06:23.522Z,6.76
2022-12-24T20:08:51.316Z,6.75
2022-12-24T20:11:20.611Z,6.67
2022-12-24T20:16:52.560Z,6.57
2022-12-24T20:19:19.074Z,6.57
2022-12-24T20:21:45.581Z,6.57
2022-12-24T20:24:12.184Z,6.52
2022-12-24T20:26:38.616Z,6.46
2022-12-24T20:29:07.451Z,6.54
2022-12-24T20:31:35.238Z,6.45
2022-12-24T20:34:02.783Z,6.44
2022-12-24T20:36:30.387Z,6.44
2022-12-24T20:38:58.477Z,6.45
2022-12-24T20:41:26.668Z,6.42
2022-12-24T20:43:56.914Z,6.43
2022-12-24T20:46:24.348Z,6.43
2022-12-24T20:48:51.154Z,6.34
2022-12-24T20:51:25.061Z,6.36
2022-12-24T20:53:53.788Z,6.42
2022-12-24T20:56:20.345Z,6.40
2022-12-24T20:58:46.839Z,6.35
2022-12-24T21:01:20.650Z,6.31
2022-12-24T21:03:47.143Z,6.31
2022-12-24T21:06:16.197Z,6.36
2022-12-24T21:08:42.753Z,6.28
2022-12-24T21:11:32.959Z,6.25
2022-12-24T21:14:01.919Z,6.11
2022-12-24T21:16:29.856Z,6.06
2022-12-24T21:18:56.318Z,6.08
2022-12-24T21:21:22.783Z,6.12
2022-12-24T21:23:49.092Z,6.04
2022-12-24T21:26:15.399Z,6.03
2022-12-24T21:28:43.711Z,5.90
2022-12-24T21:31:11.551Z,5.86
2022-12-24T21:33:38.613Z,5.76
2022-12-24T21:36:05.274Z,5.59
2022-12-24T21:38:31.757Z,5.68
2022-12-24T21:41:06.158Z,5.64
2022-12-24T21:43:34.502Z,5.62
2022-12-24T21:46:01.226Z,5.62
2022-12-24T21:48:46.334Z,5.65
2022-12-24T21:51:12.604Z,5.71
2022-12-24T21:53:57.248Z,5.67
2022-12-24T21:56:23.715Z,5.56
2022-12-24T21:58:50.809Z,5.47
2022-12-24T22:01:17.969Z,5.51
2022-12-24T22:03:48.071Z,5.55
2022-12-24T22:06:34.827Z,5.43
2022-12-24T22:09:20.276Z,5.31
2022-12-24T22:11:54.326Z,5.30
2022-12-24T22:14:21.796Z,5.23
2022-12-24T22:16:48.330Z,5.13
2022-12-24T22:19:14.778Z,5.14
2022-12-24T22:21:41.062Z,5.14
2022-12-24T22:24:07.852Z,5.01
2022-12-24T22:26:34.171Z,5.07
2022-12-24T22:29:00.524Z,5.07
2022-12-24T22:31:27.136Z,5.02
2022-12-24T22:33:54.000Z,4.99
2022-12-24T22:36:20.313Z,4.99
2022-12-24T22:38:46.673Z,4.95
2022-12-24T22:41:16.611Z,4.85
2022-12-24T22:43:44.620Z,4.81
2022-12-24T22:46:13.466Z,4.82
2022-12-24T22:48:41.583Z,4.82
2022-12-24T22:51:14.912Z,4.79
2022-12-24T22:53:41.680Z,4.71
2022-12-24T22:56:09.103Z,4.75
2022-12-24T22:58:36.932Z,4.86
2022-12-24T23:01:04.140Z,4.91
2022-12-24T23:03:31.056Z,4.94
2022-12-24T23:06:02.275Z,4.94
2022-12-24T23:08:29.466Z,4.95
2022-12-24T23:11:12.312Z,4.88
2022-12-24T23:13:59.717Z,4.83
2022-12-24T23:16:27.528Z,4.82
2022-12-24T23:18:54.690Z,4.73
2022-12-24T23:21:21.242Z,4.74
2022-12-24T23:23:47.915Z,4.72
2022-12-24T23:26:16.925Z,4.72
2022-12-24T23:28:44.582Z,4.75
2022-12-24T23:31:12.726Z,4.80
2022-12-24T23:33:39.432Z,4.82
2022-12-24T23:36:06.604Z,4.79
2022-12-24T23:38:33.038Z,4.69
2022-12-24T23:41:02.106Z,4.58
2022-12-24T23:43:29.147Z,4.46
2022-12-24T23:45:55.961Z,4.42
2022-12-24T23:48:23.908Z,4.39
2022-12-24T23:50:50.328Z,4.48
2022-12-24T23:53:19.452Z,4.48
2022-12-24T23:55:46.411Z,4.45
2022-12-24T23:58:15.530Z,4.40
